createdAt,value
2023-05-10T00:01:49.412Z,100002.25
2023-05-10T00:04:21.677Z,99998.09
2023-05-10T00:06:48.395Z,99988.44
2023-05-10T00:09:14.964Z,99981.59
2023-05-10T00:11:43.452Z,99991.09
2023-05-10T00:14:10.045Z,99986.75
2023-05-10T00:16:36.676Z,99987.94
2023-05-10T00:19:03.324Z,99980.44
2023-05-10T00:21:30.243Z,99963.44
2023-05-10T00:23:56.853Z,99974.50
2023-05-10T00:26:23.465Z,99971.84
2023-05-10T00:28:55.580Z,99964.75
2023-05-10T00:31:22.443Z,99954.31
2023-05-10T00:33:49.037Z,99954.50
2023-05-10T00:36:15.931Z,99953.53
2023-05-10T00:38:42.562Z,99949.19
2023-05-10T00:41:09.510Z,99948.03
2023-05-10T00:43:38.515Z,99949.63
2023-05-10T00:46:05.728Z,99942.94
2023-05-10T00:48:32.620Z,99940.66
2023-05-10T00:50:59.316Z,99940.84
2023-05-10T00:53:25.946Z,99933.44
2023-05-10T00:55:52.623Z,99927.56
2023-05-10T00:58:19.321Z,99929.66
2023-05-10T01:00:49.143Z,99925.59
2023-05-10T01:03:15.902Z,99921.28
2023-05-10T01:05:42.627Z,99919.63
2023-05-10T01:08:09.746Z,99912.19
2023-05-10T01:10:38.572Z,99912.75
2023-05-10T01:13:05.420Z,99912.78
2023-05-10T01:15:34.324Z,99914.31
2023-05-10T01:18:01.450Z,99906.69
2023-05-10T01:20:31.458Z,99911.63
2023-05-10T01:23:07.319Z,99915.50
2023-05-10T01:25:52.796Z,99922.84
2023-05-10T01:28:36.257Z,99933.81
2023-05-10T01:31:09.101Z,99926.22
2023-05-10T01:34:00.009Z,99926.34
2023-05-10T01:36:27.269Z,99928.09
2023-05-10T01:39:03.573Z,99924.16
2023-05-10T01:41:49.145Z,99912.75
2023-05-10T01:44:21.748Z,99915.19
2023-05-10T01:46:58.552Z,99911.41
2023-05-10T01:49:27.613Z,99913.13
2023-05-10T01:51:55.879Z,99907.31
2023-05-10T01:54:23.539Z,99903.97
2023-05-10T01:56:53.649Z,99901.78
2023-05-10T01:59:21.012Z,99909.63
2023-05-10T02:01:51.059Z,99903.84
2023-05-10T02:04:18.414Z,99910.88
2023-05-10T02:06:47.513Z,99910.88
2023-05-10T02:09:15.295Z,99910.78
2023-05-10T02:11:43.903Z,99924.13
2023-05-10T02:14:12.236Z,99915.41
2023-05-10T02:16:39.969Z,99915.03
2023-05-10T02:19:09.524Z,99913.13
2023-05-10T02:21:36.968Z,99913.88
2023-05-10T02:24:07.538Z,99911.22
2023-05-10T02:26:35.351Z,99911.91
2023-05-10T02:29:04.488Z,99911.19
2023-05-10T02:31:33.208Z,99903.06
2023-05-10T02:34:01.115Z,99903.25
2023-05-10T02:36:28.764Z,99898.75
2023-05-10T02:38:56.139Z,99900.22
2023-05-10T02:41:24.145Z,99903.63
2023-05-10T02:43:51.903Z,99903.00
2023-05-10T02:46:23.913Z,99898.09
2023-05-10T02:48:50.723Z,99901.84
2023-05-10T02:51:19.279Z,99904.16
2023-05-10T02:53:47.834Z,99894.91
2023-05-10T02:56:24.685Z,99896.34
2023-05-10T02:58:54.360Z,99887.16
2023-05-10T03:01:20.990Z,99899.81
2023-05-10T03:03:47.698Z,99889.53
2023-05-10T03:06:14.385Z,99899.09
2023-05-10T03:08:41.042Z,99897.56
2023-05-10T03:11:31.254Z,99897.03
2023-05-10T03:14:18.184Z,99901.19
2023-05-10T03:16:49.331Z,99900.03
2023-05-10T03:19:27.443Z,99904.56
2023-05-10T03:21:56.980Z,99900.81
2023-05-10T03:24:25.223Z,99904.78
2023-05-10T03:26:54.929Z,99902.34
2023-05-10T03:29:22.904Z,99900.25
2023-05-10T03:31:49.580Z,99897.38
2023-05-10T03:34:16.551Z,99895.69
2023-05-10T03:36:43.244Z,99901.75
2023-05-10T03:39:11.144Z,99903.25
2023-05-10T03:41:37.837Z,99896.53
2023-05-10T03:44:04.702Z,99890.81
2023-05-10T03:46:32.171Z,99894.72
2023-05-10T03:48:59.005Z,99899.94
2023-05-10T03:51:29.031Z,99898.91
2023-05-10T03:53:58.548Z,99895.69
2023-05-10T03:56:25.846Z,99893.81
2023-05-10T03:58:52.403Z,99889.06
2023-05-10T04:01:19.008Z,99888.50
2023-05-10T04:03:54.209Z,99885.94
2023-05-10T04:06:21.145Z,99883.34
2023-05-10T04:08:50.732Z,99882.06
2023-05-10T04:11:18.096Z,99878.66
2023-05-10T04:13:44.664Z,99888.88
2023-05-10T04:16:11.310Z,99884.97
2023-05-10T04:18:37.864Z,99884.25
2023-05-10T04:21:04.602Z,99882.78
2023-05-10T04:23:31.115Z,99877.88
2023-05-10T04:26:01.591Z,99880.31
2023-05-10T04:28:28.365Z,99878.53
2023-05-10T04:31:01.338Z,99883.22
2023-05-10T04:33:31.597Z,99874.47
2023-05-10T04:35:58.320Z,99875.59
2023-05-10T04:38:25.592Z,99871.06
2023-05-10T04:40:52.300Z,99868.25
2023-05-10T04:43:18.799Z,99863.50
2023-05-10T04:45:45.392Z,99871.53
2023-05-10T04:48:12.395Z,99873.03
2023-05-10T04:50:39.957Z,99874.72
2023-05-10T04:53:06.592Z,99876.97
2023-05-10T04:55:38.975Z,99878.34
2023-05-10T04:58:05.523Z,99878.63
2023-05-10T05:00:32.038Z,99870.09
2023-05-10T05:02:58.766Z,99878.47
2023-05-10T05:05:25.457Z,99894.25
2023-05-10T05:07:52.045Z,99888.50
2023-05-10T05:10:18.935Z,99886.78
2023-05-10T05:12:45.772Z,99891.63
2023-05-10T05:15:12.645Z,99893.00
2023-05-10T05:17:39.364Z,99886.19
2023-05-10T05:20:11.661Z,99884.91
2023-05-10T05:22:38.625Z,99898.97
2023-05-10T05:25:05.542Z,99893.44
2023-05-10T05:27:32.203Z,99892.03
2023-05-10T05:30:01.463Z,99897.13
2023-05-10T05:32:28.114Z,99892.91
2023-05-10T05:34:54.636Z,99894.06
2023-05-10T05:37:25.519Z,99900.97
2023-05-10T05:39:52.208Z,99893.16
2023-05-10T05:42:19.792Z,99905.97
2023-05-10T05:44:46.694Z,99913.19
2023-05-10T05:47:13.324Z,99911.69
2023-05-10T05:49:40.398Z,99911.38
2023-05-10T05:52:06.919Z,99915.97
2023-05-10T05:54:36.539Z,99911.06
2023-05-10T05:57:03.177Z,99909.38
2023-05-10T05:59:29.831Z,99918.03
2023-05-10T06:01:56.448Z,99909.69
2023-05-10T06:04:23.335Z,99913.81
2023-05-10T06:06:49.953Z,99912.63
2023-05-10T06:09:16.993Z,99917.44
2023-05-10T06:11:43.896Z,99927.66
2023-05-10T06:14:12.729Z,99925.72
2023-05-10T06:16:39.296Z,99922.22
2023-05-10T06:19:05.938Z,99917.44
2023-05-10T06:21:32.861Z,99920.22
2023-05-10T06:23:59.519Z,99926.63
2023-05-10T06:26:26.051Z,99926.53
2023-05-10T06:28:55.216Z,99911.31
2023-05-10T06:31:22.120Z,99917.69
2023-05-10T06:33:48.777Z,99918.22
2023-05-10T06:36:15.509Z,99922.78
2023-05-10T06:38:44.446Z,99917.69
2023-05-10T06:41:11.153Z,99923.22
2023-05-10T06:43:40.945Z,99933.22
2023-05-10T06:46:08.353Z,99938.09
2023-05-10T06:48:37.196Z,99934.31
2023-05-10T06:51:03.841Z,99937.72
2023-05-10T06:53:30.916Z,99934.19
2023-05-10T06:55:57.563Z,99940.25
2023-05-10T06:58:24.385Z,99939.63
2023-05-10T07:00:53.281Z,99939.22
2023-05-10T07:03:19.904Z,99943.91
2023-05-10T07:05:46.511Z,99939.31
2023-05-10T07:08:14.428Z,99940.50
2023-05-10T07:10:41.043Z,99937.59
2023-05-10T07:13:07.937Z,99949.88
2023-05-10T07:15:34.653Z,99942.84
2023-05-10T07:18:04.240Z,99952.41
2023-05-10T07:20:30.992Z,99951.66
2023-05-10T07:22:58.146Z,99952.63
2023-05-10T07:25:25.208Z,99960.31
2023-05-10T07:27:52.024Z,99960.28
2023-05-10T07:30:18.688Z,99961.09
2023-05-10T07:32:48.409Z,99960.78
2023-05-10T07:35:15.449Z,99963.97
2023-05-10T07:37:44.574Z,99955.59
2023-05-10T07:40:11.305Z,99965.16
2023-05-10T07:42:38.023Z,99966.50
2023-05-10T07:45:05.047Z,99965.88
2023-05-10T07:47:31.594Z,99957.94
2023-05-10T07:49:58.326Z,99968.03
2023-05-10T07:52:27.983Z,99967.09
2023-05-10T07:54:54.669Z,99973.69
2023-05-10T07:57:21.754Z,99967.81
2023-05-10T07:59:48.571Z,99977.66
2023-05-10T08:02:17.725Z,99972.19
2023-05-10T08:04:45.592Z,99985.19
2023-05-10T08:07:12.334Z,99978.75
2023-05-10T08:09:38.933Z,99993.97
2023-05-10T08:12:05.657Z,99992.66
2023-05-10T08:14:32.344Z,100002.25
2023-05-10T08:16:58.935Z,99997.28
2023-05-10T08:19:30.940Z,100002.97
2023-05-10T08:21:58.241Z,99998.81
2023-05-10T08:24:30.170Z,99997.88
2023-05-10T08:26:56.830Z,100002.72
2023-05-10T08:29:23.473Z,100004.31
2023-05-10T08:31:50.439Z,100009.75
2023-05-10T08:34:19.727Z,100017.28
2023-05-10T08:36:46.437Z,100014.13
2023-05-10T08:39:22.934Z,100019.50
2023-05-10T08:42:00.140Z,100020.75
2023-05-10T08:44:26.850Z,100026.81
2023-05-10T08:46:54.750Z,100027.22
2023-05-10T08:49:21.899Z,100033.09
2023-05-10T08:51:52.028Z,100032.94
2023-05-10T08:54:20.806Z,100038.06
2023-05-10T08:56:49.744Z,100037.19
2023-05-10T08:59:16.998Z,100041.28
2023-05-10T09:01:45.085Z,100041.13
2023-05-10T09:04:13.097Z,100047.63
2023-05-10T09:06:42.746Z,100052.94
2023-05-10T09:09:09.720Z,100056.09
2023-05-10T09:11:38.479Z,100061.97
2023-05-10T09:14:05.362Z,100065.31
2023-05-10T09:16:31.944Z,100069.09
2023-05-10T09:18:58.701Z,100071.25
2023-05-10T09:21:25.877Z,100071.66
2023-05-10T09:23:55.145Z,100061.44
2023-05-10T09:26:24.702Z,100074.72
2023-05-10T09:29:01.003Z,100072.44
2023-05-10T09:31:55.511Z,100082.22
2023-05-10T09:34:30.720Z,100090.06
2023-05-10T09:36:58.853Z,100087.44
2023-05-10T09:39:32.499Z,100093.34
2023-05-10T09:42:00.373Z,100095.25
2023-05-10T09:44:27.140Z,100104.88
2023-05-10T09:46:53.836Z,100094.75
2023-05-10T09:49:22.314Z,100112.13
2023-05-10T09:51:48.932Z,100105.75
2023-05-10T09:54:16.918Z,100109.53
2023-05-10T09:56:43.599Z,100110.38
2023-05-10T09:59:20.864Z,100105.56
2023-05-10T10:02:01.340Z,100110.09
2023-05-10T10:04:28.514Z,100118.94
2023-05-10T10:07:02.844Z,100115.16
2023-05-10T10:09:29.480Z,100121.41
2023-05-10T10:11:56.807Z,100117.41
2023-05-10T10:14:24.888Z,100112.47
2023-05-10T10:17:06.706Z,100113.84
2023-05-10T10:19:36.741Z,100119.00
2023-05-10T10:22:04.001Z,100118.69
2023-05-10T10:24:30.820Z,100126.34
2023-05-10T10:27:20.440Z,100120.81
2023-05-10T10:30:03.076Z,100126.69
2023-05-10T10:32:43.629Z,100130.22
2023-05-10T10:35:10.818Z,100132.22
2023-05-10T10:37:47.651Z,100122.03
2023-05-10T10:40:33.637Z,100127.63
2023-05-10T10:43:20.229Z,100127.72
2023-05-10T10:46:08.870Z,100138.63
2023-05-10T10:48:35.501Z,100147.75
2023-05-10T10:51:02.105Z,100146.13
2023-05-10T10:53:31.629Z,100145.63
2023-05-10T10:56:11.199Z,100149.97
2023-05-10T10:58:38.948Z,100160.44
2023-05-10T11:01:16.437Z,100159.59
2023-05-10T11:03:56.597Z,100160.88
2023-05-10T11:06:30.189Z,100164.94
2023-05-10T11:08:56.899Z,100154.06
2023-05-10T11:11:23.537Z,100165.97
2023-05-10T11:13:53.333Z,100152.31
2023-05-10T11:16:29.746Z,100156.31
2023-05-10T11:19:03.245Z,100165.13
2023-05-10T11:21:33.741Z,100171.72
2023-05-10T11:24:01.198Z,100165.44
2023-05-10T11:26:35.510Z,100168.09
2023-05-10T11:29:03.335Z,100173.88
2023-05-10T11:31:30.372Z,100169.81
2023-05-10T11:34:02.724Z,100178.78
2023-05-10T11:36:30.474Z,100180.72
2023-05-10T11:38:57.705Z,100178.53
2023-05-10T11:41:25.503Z,100185.69
2023-05-10T11:43:52.845Z,100185.13
2023-05-10T11:46:21.392Z,100196.81
2023-05-10T11:48:50.960Z,100186.88
2023-05-10T11:51:21.578Z,100192.41
2023-05-10T11:53:48.739Z,100197.00
2023-05-10T11:56:15.389Z,100199.50
2023-05-10T11:58:44.414Z,100206.19
2023-05-10T12:01:11.728Z,100203.97
2023-05-10T12:03:45.510Z,100210.34
2023-05-10T12:06:12.567Z,100211.81
2023-05-10T12:08:45.235Z,100210.91
2023-05-10T12:11:13.513Z,100212.06
2023-05-10T12:13:43.968Z,100225.78
2023-05-10T12:16:18.146Z,100225.25
2023-05-10T12:18:45.557Z,100233.16
2023-05-10T12:21:15.451Z,100225.28
2023-05-10T12:23:42.439Z,100230.50
2023-05-10T12:26:11.836Z,100232.47
2023-05-10T12:28:39.408Z,100242.31
2023-05-10T12:31:06.822Z,100242.63
2023-05-10T12:33:38.097Z,100244.47
2023-05-10T12:36:04.847Z,100234.69
2023-05-10T12:38:39.047Z,100245.66
2023-05-10T12:41:09.028Z,100245.28
2023-05-10T12:43:36.008Z,100252.91
2023-05-10T12:46:20.902Z,100249.16
2023-05-10T12:48:55.186Z,100239.25
2023-05-10T12:51:26.898Z,100243.00
2023-05-10T12:53:56.022Z,100255.13
2023-05-10T12:56:23.514Z,100248.66
2023-05-10T12:58:52.296Z,100254.31
2023-05-10T13:01:18.947Z,100253.91
2023-05-10T13:03:46.535Z,100260.09
2023-05-10T13:06:21.637Z,100257.53
2023-05-10T13:08:48.212Z,100252.63
2023-05-10T13:11:17.632Z,100257.63
2023-05-10T13:13:44.283Z,100252.13
2023-05-10T13:16:10.976Z,100256.88
2023-05-10T13:18:37.607Z,100249.66
2023-05-10T13:21:06.889Z,100240.81
2023-05-10T13:23:35.074Z,100252.66
2023-05-10T13:26:01.636Z,100252.91
2023-05-10T13:28:31.212Z,100250.72
2023-05-10T13:30:57.920Z,100245.09
2023-05-10T13:33:24.612Z,100252.44
2023-05-10T13:35:51.533Z,100238.31
2023-05-10T13:38:21.729Z,100248.25
2023-05-10T13:40:49.212Z,100252.75
2023-05-10T13:43:16.262Z,100246.78
2023-05-10T13:45:42.877Z,100244.16
2023-05-10T13:48:09.611Z,100250.06
2023-05-10T13:50:36.262Z,100251.53
2023-05-10T13:53:04.097Z,100254.19
2023-05-10T13:55:33.793Z,100248.13
2023-05-10T13:58:00.400Z,100249.84
2023-05-10T14:00:27.866Z,100254.22
2023-05-10T14:02:54.905Z,100246.78
2023-05-10T14:05:25.532Z,100257.13
2023-05-10T14:07:53.613Z,100250.16
2023-05-10T14:10:20.190Z,100251.97
2023-05-10T14:12:47.041Z,100260.03
2023-05-10T14:15:13.692Z,100252.75
2023-05-10T14:17:40.460Z,100250.19
2023-05-10T14:20:07.400Z,100244.41
2023-05-10T14:22:33.983Z,100245.16
2023-05-10T14:25:00.765Z,100245.84
2023-05-10T14:27:27.540Z,100240.88
2023-05-10T14:29:54.603Z,100254.97
2023-05-10T14:32:21.249Z,100237.59
2023-05-10T14:34:47.799Z,100241.47
2023-05-10T14:37:15.276Z,100230.84
2023-05-10T14:39:43.428Z,100228.94
2023-05-10T14:42:10.047Z,100222.88
2023-05-10T14:44:36.565Z,100227.91
2023-05-10T14:47:03.471Z,100223.91
2023-05-10T14:49:30.220Z,100220.16
2023-05-10T14:51:56.891Z,100234.44
2023-05-10T14:54:23.819Z,100238.25
2023-05-10T14:56:51.034Z,100238.75
2023-05-10T14:59:19.313Z,100234.53
2023-05-10T15:01:46.680Z,100244.72
2023-05-10T15:04:14.522Z,100231.91
2023-05-10T15:06:42.240Z,100245.53
2023-05-10T15:09:08.805Z,100245.53
2023-05-10T15:11:35.676Z,100241.59
2023-05-10T15:14:03.123Z,100240.88
2023-05-10T15:16:29.815Z,100237.25
2023-05-10T15:18:56.443Z,100240.84
2023-05-10T15:21:23.098Z,100243.50
2023-05-10T15:23:49.916Z,100229.66
2023-05-10T15:26:16.502Z,100233.75
2023-05-10T15:28:43.073Z,100232.81
2023-05-10T15:31:09.795Z,100244.81
2023-05-10T15:33:38.145Z,100249.56
2023-05-10T15:36:05.898Z,100245.56
2023-05-10T15:38:36.012Z,100244.13
2023-05-10T15:41:02.660Z,100250.03
2023-05-10T15:43:29.338Z,100256.34
2023-05-10T15:45:55.973Z,100250.50
2023-05-10T15:48:22.665Z,100251.09
2023-05-10T15:50:49.289Z,100252.88
2023-05-10T15:53:15.877Z,100255.16
2023-05-10T15:55:42.488Z,100251.50
2023-05-10T15:58:09.092Z,100252.22
2023-05-10T16:00:35.788Z,100255.53
2023-05-10T16:03:02.536Z,100260.28
2023-05-10T16:05:32.646Z,100257.84
2023-05-10T16:07:59.765Z,100263.81
2023-05-10T16:10:26.403Z,100264.16
2023-05-10T16:12:55.963Z,100255.13
2023-05-10T16:15:22.796Z,100267.69
2023-05-10T16:17:49.625Z,100264.53
2023-05-10T16:20:16.597Z,100266.25
2023-05-10T16:22:44.490Z,100266.06
2023-05-10T16:25:13.345Z,100270.47
2023-05-10T16:27:41.063Z,100277.31
2023-05-10T16:30:07.958Z,100274.88
2023-05-10T16:32:35.109Z,100274.94
2023-05-10T16:35:01.722Z,100278.25
2023-05-10T16:37:28.585Z,100278.00
2023-05-10T16:39:55.126Z,100283.25
2023-05-10T16:42:21.747Z,100286.53
2023-05-10T16:44:48.334Z,100288.38
2023-05-10T16:47:14.953Z,100289.34
2023-05-10T16:49:41.613Z,100297.41
2023-05-10T16:52:08.441Z,100295.34
2023-05-10T16:54:35.028Z,100300.19
2023-05-10T16:57:02.201Z,100305.31
2023-05-10T16:59:28.776Z,100300.19
2023-05-10T17:01:55.826Z,100309.81
2023-05-10T17:04:23.849Z,100307.50
2023-05-10T17:06:50.601Z,100309.69
2023-05-10T17:09:17.145Z,100305.44
2023-05-10T17:11:43.733Z,100303.59
2023-05-10T17:14:10.435Z,100312.38
2023-05-10T17:16:37.145Z,100312.38
2023-05-10T17:19:03.841Z,100315.06
2023-05-10T17:21:31.916Z,100314.81
2023-05-10T17:23:58.550Z,100312.28
2023-05-10T17:26:30.124Z,100325.06
2023-05-10T17:28:57.009Z,100320.44
2023-05-10T17:31:23.557Z,100319.22
2023-05-10T17:33:50.285Z,100317.88
2023-05-10T17:36:16.951Z,100333.03
2023-05-10T17:38:43.545Z,100327.44
2023-05-10T17:41:10.193Z,100325.63
2023-05-10T17:43:36.894Z,100327.94
2023-05-10T17:46:03.766Z,100340.47
2023-05-10T17:48:31.026Z,100327.59
2023-05-10T17:50:57.726Z,100340.13
2023-05-10T17:53:24.373Z,100330.34
2023-05-10T17:55:51.574Z,100340.25
2023-05-10T17:58:20.559Z,100334.19
2023-05-10T18:00:48.098Z,100340.19
2023-05-10T18:03:14.752Z,100349.56
2023-05-10T18:05:41.404Z,100344.53
2023-05-10T18:08:08.612Z,100344.53
2023-05-10T18:10:36.145Z,100344.28
2023-05-10T18:13:06.933Z,100341.19
2023-05-10T18:15:35.284Z,100345.81
2023-05-10T18:18:02.204Z,100344.78
2023-05-10T18:20:28.913Z,100353.50
2023-05-10T18:22:55.860Z,100354.44
2023-05-10T18:25:22.451Z,100359.00
2023-05-10T18:27:49.267Z,100351.81
2023-05-10T18:30:16.033Z,100361.63
2023-05-10T18:32:42.973Z,100356.59
2023-05-10T18:35:09.884Z,100369.63
2023-05-10T18:37:36.872Z,100360.78
2023-05-10T18:40:05.003Z,100365.72
2023-05-10T18:42:31.846Z,100361.13
2023-05-10T18:44:58.450Z,100369.81
2023-05-10T18:47:26.754Z,100373.44
2023-05-10T18:49:53.859Z,100360.84
2023-05-10T18:52:20.457Z,100369.59
2023-05-10T18:54:47.090Z,100381.13
2023-05-10T18:57:13.935Z,100379.00
2023-05-10T18:59:40.523Z,100385.53
2023-05-10T19:02:07.741Z,100387.22
2023-05-10T19:04:36.810Z,100380.50
2023-05-10T19:07:03.604Z,100391.06
2023-05-10T19:09:30.248Z,100382.50
2023-05-10T19:11:56.886Z,100395.75
2023-05-10T19:14:25.419Z,100394.16
2023-05-10T19:16:52.567Z,100394.19
2023-05-10T19:19:21.455Z,100387.94
2023-05-10T19:21:49.008Z,100398.34
2023-05-10T19:24:15.694Z,100407.66
2023-05-10T19:26:42.462Z,100406.34
2023-05-10T19:29:09.458Z,100411.50
2023-05-10T19:31:36.103Z,100411.75
2023-05-10T19:34:05.912Z,100408.28
2023-05-10T19:36:32.627Z,100407.13
2023-05-10T19:38:59.253Z,100408.25
2023-05-10T19:41:28.279Z,100412.41
2023-05-10T19:43:54.879Z,100413.59
2023-05-10T19:46:21.709Z,100405.31
2023-05-10T19:48:51.158Z,100408.84
2023-05-10T19:51:17.952Z,100405.41
2023-05-10T19:53:44.883Z,100407.75
2023-05-10T19:56:12.809Z,100401.13
2023-05-10T19:58:40.357Z,100404.28
2023-05-10T20:01:08.671Z,100410.56
2023-05-10T20:03:36.807Z,100403.78
2023-05-10T20:06:04.064Z,100420.31
2023-05-10T20:08:31.071Z,100415.59
2023-05-10T20:10:59.183Z,100414.13
2023-05-10T20:13:25.892Z,100411.56
2023-05-10T20:15:55.312Z,100414.91
2023-05-10T20:18:22.589Z,100422.06
2023-05-10T20:20:53.090Z,100417.84
2023-05-10T20:23:19.805Z,100421.13
2023-05-10T20:25:46.391Z,100415.97
2023-05-10T20:28:13.231Z,100420.25
2023-05-10T20:30:39.834Z,100421.56
2023-05-10T20:33:06.573Z,100418.91
2023-05-10T20:35:34.706Z,100422.72
2023-05-10T20:38:02.436Z,100421.88
2023-05-10T20:40:29.050Z,100420.44
2023-05-10T20:42:55.820Z,100423.38
2023-05-10T20:45:23.435Z,100430.81
2023-05-10T20:47:50.321Z,100433.09
2023-05-10T20:50:17.135Z,100427.78
2023-05-10T20:52:44.521Z,100425.47
2023-05-10T20:55:11.133Z,100434.94
2023-05-10T20:57:37.854Z,100432.41
2023-05-10T21:00:05.640Z,100433.69
2023-05-10T21:02:32.404Z,100426.03
2023-05-10T21:04:59.511Z,100429.81
2023-05-10T21:07:26.243Z,100430.28
2023-05-10T21:09:52.851Z,100436.44
2023-05-10T21:12:19.544Z,100431.88
2023-05-10T21:14:47.759Z,100431.59
2023-05-10T21:17:14.651Z,100438.31
2023-05-10T21:19:41.231Z,100434.25
2023-05-10T21:22:07.909Z,100441.44
2023-05-10T21:24:35.256Z,100440.09
2023-05-10T21:27:02.881Z,100437.50
2023-05-10T21:29:29.444Z,100448.22
2023-05-10T21:31:58.554Z,100437.59
2023-05-10T21:34:25.191Z,100443.88
2023-05-10T21:36:51.811Z,100436.28
2023-05-10T21:39:18.392Z,100440.47
2023-05-10T21:41:45.051Z,100444.38
2023-05-10T21:44:11.595Z,100446.94
2023-05-10T21:46:38.218Z,100449.94
2023-05-10T21:49:05.094Z,100449.31
2023-05-10T21:51:31.731Z,100446.75
2023-05-10T21:53:58.541Z,100454.66
2023-05-10T21:56:25.141Z,100452.78
2023-05-10T21:58:52.089Z,100447.31
2023-05-10T22:01:19.035Z,100444.50
2023-05-10T22:03:46.699Z,100453.16
2023-05-10T22:06:13.312Z,100447.66
2023-05-10T22:08:39.856Z,100444.72
2023-05-10T22:11:06.441Z,100448.88
2023-05-10T22:13:32.989Z,100451.25
2023-05-10T22:15:59.588Z,100455.03
2023-05-10T22:18:26.217Z,100459.50
2023-05-10T22:20:52.837Z,100456.06
2023-05-10T22:23:19.419Z,100453.66
2023-05-10T22:25:46.012Z,100460.47
2023-05-10T22:28:12.805Z,100462.84
2023-05-10T22:30:39.437Z,100470.59
2023-05-10T22:33:06.540Z,100451.91
2023-05-10T22:35:33.233Z,100455.97
2023-05-10T22:37:59.824Z,100453.84
2023-05-10T22:40:26.504Z,100465.06
2023-05-10T22:42:53.101Z,100459.63
2023-05-10T22:45:19.697Z,100458.00
2023-05-10T22:47:47.312Z,100463.94
2023-05-10T22:50:14.384Z,100469.25
2023-05-10T22:52:41.748Z,100466.41
2023-05-10T22:55:08.552Z,100461.84
2023-05-10T22:57:35.440Z,100467.53
2023-05-10T23:00:03.652Z,100472.59
2023-05-10T23:02:30.554Z,100475.59
2023-05-10T23:04:57.205Z,100474.38
2023-05-10T23:07:24.137Z,100470.59
2023-05-10T23:09:51.000Z,100475.16
2023-05-10T23:12:17.759Z,100475.97
2023-05-10T23:14:46.556Z,100473.84
2023-05-10T23:17:13.767Z,100478.66
2023-05-10T23:19:40.451Z,100484.31
2023-05-10T23:22:07.105Z,100479.75
2023-05-10T23:24:33.674Z,100485.09
2023-05-10T23:27:00.219Z,100487.56
2023-05-10T23:29:26.843Z,100482.78
2023-05-10T23:31:53.533Z,100485.22
2023-05-10T23:34:20.190Z,100479.50
2023-05-10T23:36:46.858Z,100488.81
2023-05-10T23:39:13.563Z,100487.41
2023-05-10T23:41:42.762Z,100484.34
2023-05-10T23:44:09.376Z,100492.72
2023-05-10T23:46:36.173Z,100485.84
2023-05-10T23:49:02.764Z,100477.44
2023-05-10T23:51:29.333Z,100480.69
2023-05-10T23:53:55.991Z,100481.41
2023-05-10T23:56:22.525Z,100474.91
2023-05-10T23:58:49.191Z,100480.22
